sensor_id;sensor_type;location;lat;lon;timestamp;P1;durP1;ratioP1;P2;durP2;ratioP2
28246;SDS011;66191;53.178;22.058;2023-01-31T00:02:13;24.38;;;9.27;;
28246;SDS011;66191;53.178;22.058;2023-01-31T00:04:47;18.40;;;8.43;;
28246;SDS011;66191;53.178;22.058;2023-01-31T00:07:17;18.08;;;8.30;;
28246;SDS011;66191;53.178;22.058;2023-01-31T00:09:49;20.52;;;8.10;;
28246;SDS011;66191;53.178;22.058;2023-01-31T00:12:20;19.17;;;8.13;;
28246;SDS011;66191;53.178;22.058;2023-01-31T00:14:54;20.08;;;7.85;;
28246;SDS011;66191;53.178;22.058;2023-01-31T00:17:26;17.27;;;7.43;;
28246;SDS011;66191;53.178;22.058;2023-01-31T00:19:57;20.70;;;8.63;;
28246;SDS011;66191;53.178;22.058;2023-01-31T00:24:59;19.20;;;7.80;;
28246;SDS011;66191;53.178;22.058;2023-01-31T00:30:04;20.85;;;8.40;;
28246;SDS011;66191;53.178;22.058;2023-01-31T00:32:37;28.85;;;9.85;;
28246;SDS011;66191;53.178;22.058;2023-01-31T00:35:08;23.35;;;9.07;;
28246;SDS011;66191;53.178;22.058;2023-01-31T00:37:42;21.15;;;8.32;;
28246;SDS011;66191;53.178;22.058;2023-01-31T00:40:13;21.00;;;8.63;;
28246;SDS011;66191;53.178;22.058;2023-01-31T00:42:44;21.77;;;7.63;;
28246;SDS011;66191;53.178;22.058;2023-01-31T00:45:18;21.70;;;8.23;;
28246;SDS011;66191;53.178;22.058;2023-01-31T00:47:51;20.83;;;8.32;;
28246;SDS011;66191;53.178;22.058;2023-01-31T00:50:22;23.60;;;9.57;;
28246;SDS011;66191;53.178;22.058;2023-01-31T00:52:54;27.35;;;8.73;;
28246;SDS011;66191;53.178;22.058;2023-01-31T00:55:26;25.98;;;9.13;;
28246;SDS011;66191;53.178;22.058;2023-01-31T00:57:57;29.42;;;9.02;;
28246;SDS011;66191;53.178;22.058;2023-01-31T01:00:30;41.88;;;12.80;;
28246;SDS011;66191;53.178;22.058;2023-01-31T01:03:02;34.20;;;12.18;;
28246;SDS011;66191;53.178;22.058;2023-01-31T01:05:34;42.08;;;11.02;;
28246;SDS011;66191;53.178;22.058;2023-01-31T01:08:05;31.95;;;10.10;;
28246;SDS011;66191;53.178;22.058;2023-01-31T01:10:38;53.65;;;15.45;;
28246;SDS011;66191;53.178;22.058;2023-01-31T01:13:09;28.73;;;9.80;;
28246;SDS011;66191;53.178;22.058;2023-01-31T01:15:44;22.70;;;10.23;;
28246;SDS011;66191;53.178;22.058;2023-01-31T01:18:16;31.27;;;10.38;;
28246;SDS011;66191;53.178;22.058;2023-01-31T01:20:47;34.35;;;9.40;;
28246;SDS011;66191;53.178;22.058;2023-01-31T01:23:19;22.70;;;7.85;;
28246;SDS011;66191;53.178;22.058;2023-01-31T01:25:50;20.70;;;8.63;;
28246;SDS011;66191;53.178;22.058;2023-01-31T01:28:21;25.73;;;8.63;;
28246;SDS011;66191;53.178;22.058;2023-01-31T01:30:58;26.58;;;8.30;;
28246;SDS011;66191;53.178;22.058;2023-01-31T01:33:33;22.75;;;9.02;;
28246;SDS011;66191;53.178;22.058;2023-01-31T01:36:08;20.30;;;8.82;;
28246;SDS011;66191;53.178;22.058;2023-01-31T01:38:44;23.40;;;8.00;;
28246;SDS011;66191;53.178;22.058;2023-01-31T01:41:16;22.27;;;7.38;;
28246;SDS011;66191;53.178;22.058;2023-01-31T01:43:49;22.77;;;7.20;;
28246;SDS011;66191;53.178;22.058;2023-01-31T01:46:25;26.27;;;7.38;;
28246;SDS011;66191;53.178;22.058;2023-01-31T01:49:02;20.20;;;6.45;;
28246;SDS011;66191;53.178;22.058;2023-01-31T01:51:41;23.55;;;6.75;;
28246;SDS011;66191;53.178;22.058;2023-01-31T01:54:15;22.27;;;6.65;;
28246;SDS011;66191;53.178;22.058;2023-01-31T01:56:50;18.10;;;6.05;;
28246;SDS011;66191;53.178;22.058;2023-01-31T01:59:26;22.88;;;6.43;;
28246;SDS011;66191;53.178;22.058;2023-01-31T02:02:04;18.83;;;6.13;;
28246;SDS011;66191;53.178;22.058;2023-01-31T02:04:36;24.63;;;6.22;;
28246;SDS011;66191;53.178;22.058;2023-01-31T02:07:11;17.35;;;6.15;;
28246;SDS011;66191;53.178;22.058;2023-01-31T02:09:44;23.73;;;6.10;;
28246;SDS011;66191;53.178;22.058;2023-01-31T02:12:20;22.73;;;6.95;;
28246;SDS011;66191;53.178;22.058;2023-01-31T02:14:54;19.08;;;6.03;;
28246;SDS011;66191;53.178;22.058;2023-01-31T02:17:29;20.88;;;6.10;;
28246;SDS011;66191;53.178;22.058;2023-01-31T02:20:02;16.02;;;5.20;;
28246;SDS011;66191;53.178;22.058;2023-01-31T02:22:45;16.60;;;5.93;;
28246;SDS011;66191;53.178;22.058;2023-01-31T02:25:53;20.83;;;5.53;;
28246;SDS011;66191;53.178;22.058;2023-01-31T02:28:45;19.58;;;5.15;;
28246;SDS011;66191;53.178;22.058;2023-01-31T02:34:40;21.05;;;6.05;;
28246;SDS011;66191;53.178;22.058;2023-01-31T02:37:21;15.35;;;4.95;;
28246;SDS011;66191;53.178;22.058;2023-01-31T02:40:00;17.35;;;4.97;;
28246;SDS011;66191;53.178;22.058;2023-01-31T02:42:42;17.50;;;4.72;;
28246;SDS011;66191;53.178;22.058;2023-01-31T02:45:27;14.43;;;5.05;;
28246;SDS011;66191;53.178;22.058;2023-01-31T02:48:08;20.67;;;5.05;;
28246;SDS011;66191;53.178;22.058;2023-01-31T02:50:56;14.00;;;4.85;;
28246;SDS011;66191;53.178;22.058;2023-01-31T02:53:34;15.73;;;4.25;;
28246;SDS011;66191;53.178;22.058;2023-01-31T02:56:13;22.75;;;4.45;;
28246;SDS011;66191;53.178;22.058;2023-01-31T02:58:48;14.40;;;4.38;;
28246;SDS011;66191;53.178;22.058;2023-01-31T03:01:26;16.10;;;4.25;;
28246;SDS011;66191;53.178;22.058;2023-01-31T03:04:02;20.63;;;4.47;;
28246;SDS011;66191;53.178;22.058;2023-01-31T03:06:54;12.52;;;4.18;;
28246;SDS011;66191;53.178;22.058;2023-01-31T03:09:33;15.38;;;4.10;;
28246;SDS011;66191;53.178;22.058;2023-01-31T03:12:17;20.45;;;4.32;;
28246;SDS011;66191;53.178;22.058;2023-01-31T03:15:02;21.63;;;3.90;;
28246;SDS011;66191;53.178;22.058;2023-01-31T03:17:43;15.63;;;3.92;;
28246;SDS011;66191;53.178;22.058;2023-01-31T03:20:21;16.52;;;4.10;;
28246;SDS011;66191;53.178;22.058;2023-01-31T03:23:01;16.90;;;4.20;;
28246;SDS011;66191;53.178;22.058;2023-01-31T03:25:34;18.88;;;4.63;;
28246;SDS011;66191;53.178;22.058;2023-01-31T03:28:09;18.05;;;5.45;;
28246;SDS011;66191;53.178;22.058;2023-01-31T03:30:46;21.48;;;4.45;;
28246;SDS011;66191;53.178;22.058;2023-01-31T03:33:23;20.38;;;5.88;;
28246;SDS011;66191;53.178;22.058;2023-01-31T03:35:57;21.00;;;5.40;;
28246;SDS011;66191;53.178;22.058;2023-01-31T03:38:38;24.77;;;5.63;;
28246;SDS011;66191;53.178;22.058;2023-01-31T03:41:20;22.75;;;5.30;;
28246;SDS011;66191;53.178;22.058;2023-01-31T03:43:58;18.48;;;4.30;;
28246;SDS011;66191;53.178;22.058;2023-01-31T03:46:36;17.67;;;4.13;;
28246;SDS011;66191;53.178;22.058;2023-01-31T03:49:10;16.98;;;5.10;;
28246;SDS011;66191;53.178;22.058;2023-01-31T03:51:44;27.40;;;7.35;;
28246;SDS011;66191;53.178;22.058;2023-01-31T03:54:24;24.90;;;7.85;;
28246;SDS011;66191;53.178;22.058;2023-01-31T03:57:00;20.88;;;5.80;;
28246;SDS011;66191;53.178;22.058;2023-01-31T03:59:36;22.65;;;5.03;;
28246;SDS011;66191;53.178;22.058;2023-01-31T04:02:11;21.10;;;5.28;;
28246;SDS011;66191;53.178;22.058;2023-01-31T04:04:46;22.50;;;6.00;;
28246;SDS011;66191;53.178;22.058;2023-01-31T04:07:20;25.15;;;6.85;;
28246;SDS011;66191;53.178;22.058;2023-01-31T04:09:54;26.08;;;6.18;;
28246;SDS011;66191;53.178;22.058;2023-01-31T04:12:25;24.15;;;5.03;;
28246;SDS011;66191;53.178;22.058;2023-01-31T04:14:57;19.95;;;6.00;;
28246;SDS011;66191;53.178;22.058;2023-01-31T04:17:28;24.85;;;5.55;;
28246;SDS011;66191;53.178;22.058;2023-01-31T04:19:59;18.42;;;3.92;;
28246;SDS011;66191;53.178;22.058;2023-01-31T04:22:31;16.48;;;4.28;;
28246;SDS011;66191;53.178;22.058;2023-01-31T04:25:06;15.38;;;4.70;;
28246;SDS011;66191;53.178;22.058;2023-01-31T04:27:37;21.38;;;4.28;;
28246;SDS011;66191;53.178;22.058;2023-01-31T04:30:09;17.58;;;4.53;;
28246;SDS011;66191;53.178;22.058;2023-01-31T04:32:41;22.73;;;5.75;;
28246;SDS011;66191;53.178;22.058;2023-01-31T04:35:12;27.35;;;7.40;;
28246;SDS011;66191;53.178;22.058;2023-01-31T04:37:44;21.35;;;6.32;;
28246;SDS011;66191;53.178;22.058;2023-01-31T04:40:17;17.40;;;4.70;;
28246;SDS011;66191;53.178;22.058;2023-01-31T04:42:49;16.00;;;3.80;;
28246;SDS011;66191;53.178;22.058;2023-01-31T04:45:20;14.82;;;3.17;;
28246;SDS011;66191;53.178;22.058;2023-01-31T04:47:51;14.13;;;3.22;;
28246;SDS011;66191;53.178;22.058;2023-01-31T04:50:22;18.45;;;4.07;;
28246;SDS011;66191;53.178;22.058;2023-01-31T04:52:53;15.77;;;3.35;;
28246;SDS011;66191;53.178;22.058;2023-01-31T04:55:26;15.13;;;4.00;;
28246;SDS011;66191;53.178;22.058;2023-01-31T04:57:57;20.67;;;4.32;;
28246;SDS011;66191;53.178;22.058;2023-01-31T05:00:31;14.25;;;3.60;;
28246;SDS011;66191;53.178;22.058;2023-01-31T05:08:04;18.38;;;4.60;;
28246;SDS011;66191;53.178;22.058;2023-01-31T05:10:38;18.80;;;4.78;;
28246;SDS011;66191;53.178;22.058;2023-01-31T05:13:09;14.18;;;3.08;;
28246;SDS011;66191;53.178;22.058;2023-01-31T05:15:41;14.98;;;3.53;;
28246;SDS011;66191;53.178;22.058;2023-01-31T05:20:43;16.77;;;4.10;;
28246;SDS011;66191;53.178;22.058;2023-01-31T05:23:14;17.85;;;4.68;;
28246;SDS011;66191;53.178;22.058;2023-01-31T05:25:48;15.27;;;4.07;;
28246;SDS011;66191;53.178;22.058;2023-01-31T05:28:20;21.50;;;4.85;;
28246;SDS011;66191;53.178;22.058;2023-01-31T05:30:52;27.33;;;7.80;;
28246;SDS011;66191;53.178;22.058;2023-01-31T05:33:24;29.25;;;8.77;;
28246;SDS011;66191;53.178;22.058;2023-01-31T05:35:56;23.55;;;6.05;;
28246;SDS011;66191;53.178;22.058;2023-01-31T05:38:27;19.27;;;5.05;;
28246;SDS011;66191;53.178;22.058;2023-01-31T05:41:01;18.13;;;4.60;;
28246;SDS011;66191;53.178;22.058;2023-01-31T05:43:32;18.70;;;4.57;;
28246;SDS011;66191;53.178;22.058;2023-01-31T05:46:05;21.25;;;4.30;;
28246;SDS011;66191;53.178;22.058;2023-01-31T05:48:36;17.55;;;4.50;;
28246;SDS011;66191;53.178;22.058;2023-01-31T05:51:07;20.17;;;5.90;;
28246;SDS011;66191;53.178;22.058;2023-01-31T05:56:12;30.88;;;7.55;;
28246;SDS011;66191;53.178;22.058;2023-01-31T05:58:43;29.88;;;8.27;;
28246;SDS011;66191;53.178;22.058;2023-01-31T06:01:16;25.63;;;6.43;;
28246;SDS011;66191;53.178;22.058;2023-01-31T06:03:48;20.60;;;5.70;;
28246;SDS011;66191;53.178;22.058;2023-01-31T06:06:20;24.98;;;6.25;;
28246;SDS011;66191;53.178;22.058;2023-01-31T06:08:51;20.95;;;6.28;;
28246;SDS011;66191;53.178;22.058;2023-01-31T06:11:25;22.00;;;5.80;;
28246;SDS011;66191;53.178;22.058;2023-01-31T06:13:56;17.50;;;4.55;;
28246;SDS011;66191;53.178;22.058;2023-01-31T06:16:28;20.00;;;4.72;;
28246;SDS011;66191;53.178;22.058;2023-01-31T06:18:59;22.50;;;4.40;;
28246;SDS011;66191;53.178;22.058;2023-01-31T06:21:30;20.00;;;4.22;;
28246;SDS011;66191;53.178;22.058;2023-01-31T06:24:02;21.35;;;6.00;;
28246;SDS011;66191;53.178;22.058;2023-01-31T06:26:37;28.70;;;7.45;;
28246;SDS011;66191;53.178;22.058;2023-01-31T06:29:08;21.15;;;5.95;;
28246;SDS011;66191;53.178;22.058;2023-01-31T06:31:42;19.13;;;5.85;;
28246;SDS011;66191;53.178;22.058;2023-01-31T06:34:13;21.88;;;5.75;;
28246;SDS011;66191;53.178;22.058;2023-01-31T06:36:44;30.58;;;7.85;;
28246;SDS011;66191;53.178;22.058;2023-01-31T06:41:49;23.27;;;6.30;;
28246;SDS011;66191;53.178;22.058;2023-01-31T06:44:20;31.67;;;8.95;;
28246;SDS011;66191;53.178;22.058;2023-01-31T06:46:53;31.10;;;9.77;;
28246;SDS011;66191;53.178;22.058;2023-01-31T06:51:56;28.52;;;7.35;;
28246;SDS011;66191;53.178;22.058;2023-01-31T06:54:27;26.58;;;6.88;;
28246;SDS011;66191;53.178;22.058;2023-01-31T06:57:02;27.17;;;6.47;;
28246;SDS011;66191;53.178;22.058;2023-01-31T06:59:33;22.42;;;6.13;;
28246;SDS011;66191;53.178;22.058;2023-01-31T07:02:04;21.95;;;7.13;;
28246;SDS011;66191;53.178;22.058;2023-01-31T07:04:35;23.45;;;5.88;;
28246;SDS011;66191;53.178;22.058;2023-01-31T07:07:07;28.65;;;5.82;;
28246;SDS011;66191;53.178;22.058;2023-01-31T07:12:11;26.17;;;7.65;;
28246;SDS011;66191;53.178;22.058;2023-01-31T07:14:42;26.65;;;7.43;;
28246;SDS011;66191;53.178;22.058;2023-01-31T07:17:14;19.50;;;5.97;;
28246;SDS011;66191;53.178;22.058;2023-01-31T07:19:47;24.00;;;6.43;;
28246;SDS011;66191;53.178;22.058;2023-01-31T07:22:18;23.52;;;5.28;;
28246;SDS011;66191;53.178;22.058;2023-01-31T07:27:23;25.65;;;6.88;;
28246;SDS011;66191;53.178;22.058;2023-01-31T07:29:54;27.10;;;7.28;;
28246;SDS011;66191;53.178;22.058;2023-01-31T07:32:27;19.58;;;5.63;;
28246;SDS011;66191;53.178;22.058;2023-01-31T07:34:59;32.60;;;9.95;;
28246;SDS011;66191;53.178;22.058;2023-01-31T07:37:31;32.63;;;11.18;;
28246;SDS011;66191;53.178;22.058;2023-01-31T07:42:36;26.55;;;9.02;;
28246;SDS011;66191;53.178;22.058;2023-01-31T07:45:09;33.40;;;9.27;;
28246;SDS011;66191;53.178;22.058;2023-01-31T07:47:59;22.30;;;7.70;;
28246;SDS011;66191;53.178;22.058;2023-01-31T07:50:32;22.05;;;7.45;;
28246;SDS011;66191;53.178;22.058;2023-01-31T07:53:04;22.50;;;7.13;;
28246;SDS011;66191;53.178;22.058;2023-01-31T07:55:35;27.10;;;6.90;;
28246;SDS011;66191;53.178;22.058;2023-01-31T07:58:09;25.17;;;7.20;;
28246;SDS011;66191;53.178;22.058;2023-01-31T08:00:41;24.33;;;7.47;;
28246;SDS011;66191;53.178;22.058;2023-01-31T08:03:27;35.58;;;13.52;;
28246;SDS011;66191;53.178;22.058;2023-01-31T08:06:05;32.72;;;9.63;;
28246;SDS011;66191;53.178;22.058;2023-01-31T08:08:39;24.63;;;7.90;;
28246;SDS011;66191;53.178;22.058;2023-01-31T08:11:12;26.95;;;9.35;;
28246;SDS011;66191;53.178;22.058;2023-01-31T08:13:46;24.10;;;6.95;;
28246;SDS011;66191;53.178;22.058;2023-01-31T08:16:17;25.80;;;7.88;;
28246;SDS011;66191;53.178;22.058;2023-01-31T08:18:50;28.80;;;7.57;;
28246;SDS011;66191;53.178;22.058;2023-01-31T08:21:21;28.65;;;6.20;;
28246;SDS011;66191;53.178;22.058;2023-01-31T08:23:52;32.17;;;9.80;;
28246;SDS011;66191;53.178;22.058;2023-01-31T08:26:24;32.97;;;9.65;;
28246;SDS011;66191;53.178;22.058;2023-01-31T08:28:58;33.55;;;11.75;;
28246;SDS011;66191;53.178;22.058;2023-01-31T08:31:30;39.15;;;15.57;;
28246;SDS011;66191;53.178;22.058;2023-01-31T08:34:01;45.80;;;16.65;;
28246;SDS011;66191;53.178;22.058;2023-01-31T08:36:32;51.35;;;20.55;;
28246;SDS011;66191;53.178;22.058;2023-01-31T08:39:04;18.27;;;6.63;;
28246;SDS011;66191;53.178;22.058;2023-01-31T08:44:10;32.90;;;8.93;;
28246;SDS011;66191;53.178;22.058;2023-01-31T08:46:41;61.05;;;30.70;;
28246;SDS011;66191;53.178;22.058;2023-01-31T08:49:13;228.32;;;158.18;;
28246;SDS011;66191;53.178;22.058;2023-01-31T08:51:44;76.00;;;52.80;;
28246;SDS011;66191;53.178;22.058;2023-01-31T08:54:15;55.78;;;42.92;;
28246;SDS011;66191;53.178;22.058;2023-01-31T08:56:46;51.80;;;36.63;;
28246;SDS011;66191;53.178;22.058;2023-01-31T08:59:20;46.20;;;29.73;;
28246;SDS011;66191;53.178;22.058;2023-01-31T09:01:52;24.60;;;10.27;;
28246;SDS011;66191;53.178;22.058;2023-01-31T09:04:23;30.58;;;11.32;;
28246;SDS011;66191;53.178;22.058;2023-01-31T09:06:54;30.17;;;12.15;;
28246;SDS011;66191;53.178;22.058;2023-01-31T09:09:26;28.33;;;9.75;;
28246;SDS011;66191;53.178;22.058;2023-01-31T09:11:57;31.17;;;11.20;;
28246;SDS011;66191;53.178;22.058;2023-01-31T09:14:31;29.75;;;10.00;;
28246;SDS011;66191;53.178;22.058;2023-01-31T09:17:02;25.45;;;7.60;;
28246;SDS011;66191;53.178;22.058;2023-01-31T09:19:34;22.33;;;6.65;;
28246;SDS011;66191;53.178;22.058;2023-01-31T09:24:36;23.92;;;9.10;;
28246;SDS011;66191;53.178;22.058;2023-01-31T09:27:07;22.23;;;7.75;;
28246;SDS011;66191;53.178;22.058;2023-01-31T09:29:41;17.30;;;5.85;;
28246;SDS011;66191;53.178;22.058;2023-01-31T09:32:12;23.00;;;8.15;;
28246;SDS011;66191;53.178;22.058;2023-01-31T09:34:44;22.17;;;7.65;;
28246;SDS011;66191;53.178;22.058;2023-01-31T09:37:15;17.65;;;7.45;;
28246;SDS011;66191;53.178;22.058;2023-01-31T09:39:47;19.38;;;5.00;;
28246;SDS011;66191;53.178;22.058;2023-01-31T09:42:18;38.22;;;19.20;;
28246;SDS011;66191;53.178;22.058;2023-01-31T09:45:00;24.27;;;13.85;;
28246;SDS011;66191;53.178;22.058;2023-01-31T09:47:33;32.53;;;18.30;;
28246;SDS011;66191;53.178;22.058;2023-01-31T09:50:11;15.88;;;4.88;;
28246;SDS011;66191;53.178;22.058;2023-01-31T09:52:48;19.83;;;5.53;;
28246;SDS011;66191;53.178;22.058;2023-01-31T09:55:21;17.45;;;6.85;;
28246;SDS011;66191;53.178;22.058;2023-01-31T09:57:58;13.48;;;4.85;;
28246;SDS011;66191;53.178;22.058;2023-01-31T10:00:41;23.55;;;8.38;;
28246;SDS011;66191;53.178;22.058;2023-01-31T10:03:23;18.20;;;6.32;;
28246;SDS011;66191;53.178;22.058;2023-01-31T10:06:07;20.05;;;5.25;;
28246;SDS011;66191;53.178;22.058;2023-01-31T10:08:45;18.08;;;4.55;;
28246;SDS011;66191;53.178;22.058;2023-01-31T10:11:23;57.00;;;26.90;;
28246;SDS011;66191;53.178;22.058;2023-01-31T10:14:04;81.57;;;47.45;;
28246;SDS011;66191;53.178;22.058;2023-01-31T10:16:54;61.75;;;38.95;;
28246;SDS011;66191;53.178;22.058;2023-01-31T10:19:30;35.92;;;24.02;;
28246;SDS011;66191;53.178;22.058;2023-01-31T10:22:06;47.25;;;29.52;;
28246;SDS011;66191;53.178;22.058;2023-01-31T10:24:42;20.20;;;8.02;;
28246;SDS011;66191;53.178;22.058;2023-01-31T10:27:18;33.25;;;16.50;;
28246;SDS011;66191;53.178;22.058;2023-01-31T10:30:02;23.90;;;13.95;;
28246;SDS011;66191;53.178;22.058;2023-01-31T10:32:40;24.92;;;7.80;;
28246;SDS011;66191;53.178;22.058;2023-01-31T10:35:15;23.38;;;6.22;;
28246;SDS011;66191;53.178;22.058;2023-01-31T10:37:52;23.58;;;7.78;;
28246;SDS011;66191;53.178;22.058;2023-01-31T10:40:29;20.42;;;5.03;;
28246;SDS011;66191;53.178;22.058;2023-01-31T10:43:08;30.60;;;10.30;;
28246;SDS011;66191;53.178;22.058;2023-01-31T10:45:45;32.13;;;11.40;;
28246;SDS011;66191;53.178;22.058;2023-01-31T10:48:21;23.75;;;8.93;;
28246;SDS011;66191;53.178;22.058;2023-01-31T10:50:57;21.95;;;8.73;;
28246;SDS011;66191;53.178;22.058;2023-01-31T10:53:45;19.02;;;7.10;;
28246;SDS011;66191;53.178;22.058;2023-01-31T10:56:26;35.17;;;12.90;;
28246;SDS011;66191;53.178;22.058;2023-01-31T10:59:04;25.15;;;10.02;;
28246;SDS011;66191;53.178;22.058;2023-01-31T11:01:40;16.85;;;6.32;;
28246;SDS011;66191;53.178;22.058;2023-01-31T11:04:21;21.15;;;8.70;;
28246;SDS011;66191;53.178;22.058;2023-01-31T11:06:55;22.77;;;8.07;;
28246;SDS011;66191;53.178;22.058;2023-01-31T11:09:30;15.52;;;5.50;;
28246;SDS011;66191;53.178;22.058;2023-01-31T11:12:06;19.40;;;5.50;;
28246;SDS011;66191;53.178;22.058;2023-01-31T11:14:38;16.80;;;5.53;;
28246;SDS011;66191;53.178;22.058;2023-01-31T11:17:12;29.13;;;9.63;;
28246;SDS011;66191;53.178;22.058;2023-01-31T11:19:49;26.25;;;7.45;;
28246;SDS011;66191;53.178;22.058;2023-01-31T11:22:22;32.67;;;13.60;;
28246;SDS011;66191;53.178;22.058;2023-01-31T11:24:56;24.33;;;7.38;;
28246;SDS011;66191;53.178;22.058;2023-01-31T11:27:32;27.60;;;8.15;;
28246;SDS011;66191;53.178;22.058;2023-01-31T11:30:17;20.73;;;6.57;;
28246;SDS011;66191;53.178;22.058;2023-01-31T11:32:51;34.47;;;12.20;;
28246;SDS011;66191;53.178;22.058;2023-01-31T11:35:28;26.90;;;10.02;;
28246;SDS011;66191;53.178;22.058;2023-01-31T11:38:01;21.38;;;7.07;;
28246;SDS011;66191;53.178;22.058;2023-01-31T11:40:47;25.55;;;11.00;;
28246;SDS011;66191;53.178;22.058;2023-01-31T11:43:22;28.33;;;11.15;;
28246;SDS011;66191;53.178;22.058;2023-01-31T11:45:56;19.52;;;8.00;;
28246;SDS011;66191;53.178;22.058;2023-01-31T11:48:30;26.83;;;13.25;;
28246;SDS011;66191;53.178;22.058;2023-01-31T11:51:11;22.08;;;10.25;;
28246;SDS011;66191;53.178;22.058;2023-01-31T11:53:57;20.85;;;6.32;;
28246;SDS011;66191;53.178;22.058;2023-01-31T11:56:29;23.60;;;7.68;;
28246;SDS011;66191;53.178;22.058;2023-01-31T11:59:04;40.55;;;18.80;;
28246;SDS011;66191;53.178;22.058;2023-01-31T12:01:43;74.85;;;52.85;;
28246;SDS011;66191;53.178;22.058;2023-01-31T12:04:17;53.10;;;34.58;;
28246;SDS011;66191;53.178;22.058;2023-01-31T12:06:59;64.20;;;40.28;;
28246;SDS011;66191;53.178;22.058;2023-01-31T12:09:41;55.28;;;30.58;;
28246;SDS011;66191;53.178;22.058;2023-01-31T12:12:26;39.67;;;21.65;;
28246;SDS011;66191;53.178;22.058;2023-01-31T12:14:59;28.00;;;12.45;;
28246;SDS011;66191;53.178;22.058;2023-01-31T12:17:34;35.90;;;17.77;;
28246;SDS011;66191;53.178;22.058;2023-01-31T12:20:13;63.78;;;30.25;;
28246;SDS011;66191;53.178;22.058;2023-01-31T12:23:01;54.40;;;26.70;;
28246;SDS011;66191;53.178;22.058;2023-01-31T12:25:43;44.83;;;21.00;;
28246;SDS011;66191;53.178;22.058;2023-01-31T12:28:30;36.10;;;13.90;;
28246;SDS011;66191;53.178;22.058;2023-01-31T12:31:18;84.13;;;46.83;;
28246;SDS011;66191;53.178;22.058;2023-01-31T12:34:07;65.22;;;36.45;;
28246;SDS011;66191;53.178;22.058;2023-01-31T12:40:00;125.78;;;61.70;;
28246;SDS011;66191;53.178;22.058;2023-01-31T12:42:55;45.75;;;22.45;;
28246;SDS011;66191;53.178;22.058;2023-01-31T12:45:35;302.70;;;188.02;;
28246;SDS011;66191;53.178;22.058;2023-01-31T12:51:28;25.92;;;11.73;;
28246;SDS011;66191;53.178;22.058;2023-01-31T12:54:12;31.38;;;14.23;;
28246;SDS011;66191;53.178;22.058;2023-01-31T12:57:14;40.75;;;18.58;;
28246;SDS011;66191;53.178;22.058;2023-01-31T12:59:54;45.47;;;17.33;;
28246;SDS011;66191;53.178;22.058;2023-01-31T13:02:37;51.25;;;18.77;;
28246;SDS011;66191;53.178;22.058;2023-01-31T13:05:17;34.20;;;15.57;;
28246;SDS011;66191;53.178;22.058;2023-01-31T13:07:56;42.00;;;15.75;;
28246;SDS011;66191;53.178;22.058;2023-01-31T13:10:34;35.13;;;14.10;;
28246;SDS011;66191;53.178;22.058;2023-01-31T13:13:15;37.83;;;14.35;;
28246;SDS011;66191;53.178;22.058;2023-01-31T13:15:53;35.45;;;14.93;;
28246;SDS011;66191;53.178;22.058;2023-01-31T13:18:28;36.45;;;13.13;;
28246;SDS011;66191;53.178;22.058;2023-01-31T13:21:02;30.17;;;11.10;;
28246;SDS011;66191;53.178;22.058;2023-01-31T13:23:37;33.58;;;10.02;;
28246;SDS011;66191;53.178;22.058;2023-01-31T13:26:12;34.40;;;12.80;;
28246;SDS011;66191;53.178;22.058;2023-01-31T13:28:56;27.00;;;8.80;;
28246;SDS011;66191;53.178;22.058;2023-01-31T13:31:32;28.67;;;8.57;;
28246;SDS011;66191;53.178;22.058;2023-01-31T13:34:11;27.17;;;6.80;;
28246;SDS011;66191;53.178;22.058;2023-01-31T13:36:47;44.88;;;13.85;;
28246;SDS011;66191;53.178;22.058;2023-01-31T13:39:23;45.35;;;12.23;;
28246;SDS011;66191;53.178;22.058;2023-01-31T13:41:59;26.02;;;8.35;;
28246;SDS011;66191;53.178;22.058;2023-01-31T13:44:34;30.83;;;11.30;;
28246;SDS011;66191;53.178;22.058;2023-01-31T13:47:05;34.72;;;11.90;;
28246;SDS011;66191;53.178;22.058;2023-01-31T13:49:46;32.72;;;8.93;;
28246;SDS011;66191;53.178;22.058;2023-01-31T13:52:21;28.23;;;8.48;;
28246;SDS011;66191;53.178;22.058;2023-01-31T13:54:55;212.85;;;97.55;;
28246;SDS011;66191;53.178;22.058;2023-01-31T13:57:30;232.05;;;96.72;;
28246;SDS011;66191;53.178;22.058;2023-01-31T14:00:08;79.57;;;35.55;;
28246;SDS011;66191;53.178;22.058;2023-01-31T14:02:59;37.38;;;14.13;;
28246;SDS011;66191;53.178;22.058;2023-01-31T14:08:35;92.43;;;45.33;;
28246;SDS011;66191;53.178;22.058;2023-01-31T14:17:12;40.47;;;17.48;;
28246;SDS011;66191;53.178;22.058;2023-01-31T14:20:04;36.85;;;16.88;;
28246;SDS011;66191;53.178;22.058;2023-01-31T14:22:37;44.83;;;16.48;;
28246;SDS011;66191;53.178;22.058;2023-01-31T14:25:11;38.05;;;16.92;;
28246;SDS011;66191;53.178;22.058;2023-01-31T14:27:45;34.83;;;13.90;;
28246;SDS011;66191;53.178;22.058;2023-01-31T14:30:38;31.88;;;12.75;;
28246;SDS011;66191;53.178;22.058;2023-01-31T14:33:18;36.83;;;15.63;;
28246;SDS011;66191;53.178;22.058;2023-01-31T14:36:03;49.13;;;22.38;;
28246;SDS011;66191;53.178;22.058;2023-01-31T14:42:02;116.97;;;60.97;;
28246;SDS011;66191;53.178;22.058;2023-01-31T14:45:00;73.95;;;30.33;;
28246;SDS011;66191;53.178;22.058;2023-01-31T14:47:50;88.05;;;44.83;;
28246;SDS011;66191;53.178;22.058;2023-01-31T14:50:41;80.20;;;37.60;;
28246;SDS011;66191;53.178;22.058;2023-01-31T14:53:29;101.93;;;46.90;;
28246;SDS011;66191;53.178;22.058;2023-01-31T14:56:17;132.07;;;68.05;;
28246;SDS011;66191;53.178;22.058;2023-01-31T14:58:54;130.85;;;59.15;;
28246;SDS011;66191;53.178;22.058;2023-01-31T15:01:30;101.38;;;47.65;;
28246;SDS011;66191;53.178;22.058;2023-01-31T15:04:04;67.93;;;29.50;;
28246;SDS011;66191;53.178;22.058;2023-01-31T15:06:39;89.38;;;41.42;;
28246;SDS011;66191;53.178;22.058;2023-01-31T15:15:08;89.72;;;34.67;;
28246;SDS011;66191;53.178;22.058;2023-01-31T15:17:51;77.78;;;32.60;;
28246;SDS011;66191;53.178;22.058;2023-01-31T15:20:27;88.63;;;40.55;;
28246;SDS011;66191;53.178;22.058;2023-01-31T15:23:09;62.28;;;26.02;;
28246;SDS011;66191;53.178;22.058;2023-01-31T15:25:47;59.00;;;25.10;;
28246;SDS011;66191;53.178;22.058;2023-01-31T15:28:20;132.52;;;59.92;;
28246;SDS011;66191;53.178;22.058;2023-01-31T15:30:55;94.18;;;40.55;;
28246;SDS011;66191;53.178;22.058;2023-01-31T15:33:29;142.60;;;59.70;;
28246;SDS011;66191;53.178;22.058;2023-01-31T15:36:02;71.85;;;29.90;;
28246;SDS011;66191;53.178;22.058;2023-01-31T15:38:42;66.13;;;27.42;;
28246;SDS011;66191;53.178;22.058;2023-01-31T15:41:19;65.88;;;25.15;;
28246;SDS011;66191;53.178;22.058;2023-01-31T15:43:53;221.23;;;125.97;;
28246;SDS011;66191;53.178;22.058;2023-01-31T15:46:26;201.25;;;96.88;;
28246;SDS011;66191;53.178;22.058;2023-01-31T15:48:58;102.05;;;47.70;;
28246;SDS011;66191;53.178;22.058;2023-01-31T15:51:30;114.15;;;51.90;;
28246;SDS011;66191;53.178;22.058;2023-01-31T15:54:04;192.82;;;87.18;;
28246;SDS011;66191;53.178;22.058;2023-01-31T15:56:36;239.25;;;129.45;;
28246;SDS011;66191;53.178;22.058;2023-01-31T15:59:10;181.50;;;101.05;;
28246;SDS011;66191;53.178;22.058;2023-01-31T16:01:45;78.72;;;35.63;;
28246;SDS011;66191;53.178;22.058;2023-01-31T16:04:17;109.78;;;51.03;;
28246;SDS011;66191;53.178;22.058;2023-01-31T16:09:26;111.63;;;53.88;;